<?xml version="1.0" encoding="UTF-8" standalone="no" ?>
<gpx xmlns="http://www.topografix.com/GPX/1/1" xmlns:xsi="http://www.w3.org/2001/XMLSchema-instance" xsi:schemaLocation="http://www.topografix.com/GPX/1/1 http://www.topografix.com/GPX/1/1/gpx.xsd" version="1.1" creator="VisuGPX - https://www.visugpx.com">
  <metadata>
    <name>Parcours VTT Aglo 2021</name>
  </metadata>
  <trk>
    <name><![CDATA[Bleu Montclus Bernas]]></name>
    <extensions>
      <line xmlns="http://www.topografix.com/GPX/gpx_style/0/2">
        <color>0000fa</color>
        <width>4</width>
      </line>
    </extensions>
    <trkseg>
      <trkpt lat="44.26214" lon="4.41999">
        <ele>91</ele>
        <time>2021-07-04T13:10:24Z</time>
      </trkpt>
      <trkpt lat="44.26214" lon="4.41999">
        <ele>91</ele>
        <time>2021-07-04T13:10:24Z</time>
      </trkpt>
      <trkpt lat="44.26214" lon="4.42004">
        <ele>91</ele>
        <time>2021-07-04T13:10:25Z</time>
      </trkpt>
      <trkpt lat="44.26228" lon="4.42007">
        <ele>89</ele>
        <time>2021-07-04T13:10:28Z</time>
      </trkpt>
      <trkpt lat="44.26237" lon="4.42014">
        <ele>88</ele>
        <time>2021-07-04T13:10:31Z</time>
      </trkpt>
      <trkpt lat="44.26268" lon="4.4202">
        <ele>87</ele>
        <time>2021-07-04T13:10:38Z</time>
      </trkpt>
      <trkpt lat="44.263" lon="4.42025">
        <ele>87</ele>
        <time>2021-07-04T13:10:45Z</time>
      </trkpt>
      <trkpt lat="44.26301" lon="4.42026">
        <ele>88</ele>
        <time>2021-07-04T13:10:46Z</time>
      </trkpt>
      <trkpt lat="44.26341" lon="4.4204">
        <ele>89</ele>
        <time>2021-07-04T13:10:55Z</time>
      </trkpt>
      <trkpt lat="44.26377" lon="4.42052">
        <ele>89</ele>
        <time>2021-07-04T13:11:04Z</time>
      </trkpt>
      <trkpt lat="44.26421" lon="4.42075">
        <ele>91</ele>
        <time>2021-07-04T13:11:15Z</time>
      </trkpt>
      <trkpt lat="44.26434" lon="4.42097">
        <ele>90</ele>
        <time>2021-07-04T13:11:20Z</time>
      </trkpt>
      <trkpt lat="44.26447" lon="4.42156">
        <ele>91</ele>
        <time>2021-07-04T13:11:30Z</time>
      </trkpt>
      <trkpt lat="44.26454" lon="4.42194">
        <ele>91</ele>
        <time>2021-07-04T13:11:37Z</time>
      </trkpt>
      <trkpt lat="44.26475" lon="4.42237">
        <ele>92</ele>
        <time>2021-07-04T13:11:45Z</time>
      </trkpt>
      <trkpt lat="44.26496" lon="4.42282">
        <ele>92</ele>
        <time>2021-07-04T13:11:54Z</time>
      </trkpt>
      <trkpt lat="44.26511" lon="4.42311">
        <ele>92</ele>
        <time>2021-07-04T13:12:00Z</time>
      </trkpt>
      <trkpt lat="44.26527" lon="4.42339">
        <ele>92</ele>
        <time>2021-07-04T13:12:06Z</time>
      </trkpt>
      <trkpt lat="44.26543" lon="4.42373">
        <ele>92</ele>
        <time>2021-07-04T13:12:13Z</time>
      </trkpt>
      <trkpt lat="44.26554" lon="4.42414">
        <ele>93</ele>
        <time>2021-07-04T13:12:20Z</time>
      </trkpt>
      <trkpt lat="44.26566" lon="4.42455">
        <ele>96</ele>
        <time>2021-07-04T13:12:28Z</time>
      </trkpt>
      <trkpt lat="44.26591" lon="4.42548">
        <ele>99</ele>
        <time>2021-07-04T13:12:44Z</time>
      </trkpt>
      <trkpt lat="44.26597" lon="4.42574">
        <ele>100</ele>
        <time>2021-07-04T13:12:49Z</time>
      </trkpt>
      <trkpt lat="44.26607" lon="4.42602">
        <ele>101</ele>
        <time>2021-07-04T13:12:54Z</time>
      </trkpt>
      <trkpt lat="44.26614" lon="4.42623">
        <ele>102</ele>
        <time>2021-07-04T13:12:58Z</time>
      </trkpt>
      <trkpt lat="44.2662" lon="4.42632">
        <ele>102</ele>
        <time>2021-07-04T13:13:00Z</time>
      </trkpt>
      <trkpt lat="44.26629" lon="4.42619">
        <ele>100</ele>
        <time>2021-07-04T13:13:03Z</time>
      </trkpt>
      <trkpt lat="44.2662" lon="4.42632">
        <ele>102</ele>
        <time>2021-07-04T13:13:06Z</time>
      </trkpt>
      <trkpt lat="44.26624" lon="4.42638">
        <ele>102</ele>
        <time>2021-07-04T13:13:08Z</time>
      </trkpt>
      <trkpt lat="44.26647" lon="4.42664">
        <ele>100</ele>
        <time>2021-07-04T13:13:14Z</time>
      </trkpt>
      <trkpt lat="44.26665" lon="4.4268">
        <ele>98</ele>
        <time>2021-07-04T13:13:19Z</time>
      </trkpt>
      <trkpt lat="44.26676" lon="4.42698">
        <ele>98</ele>
        <time>2021-07-04T13:13:23Z</time>
      </trkpt>
      <trkpt lat="44.2669" lon="4.42725">
        <ele>98</ele>
        <time>2021-07-04T13:13:29Z</time>
      </trkpt>
      <trkpt lat="44.26705" lon="4.42763">
        <ele>99</ele>
        <time>2021-07-04T13:13:36Z</time>
      </trkpt>
      <trkpt lat="44.26716" lon="4.42807">
        <ele>103</ele>
        <time>2021-07-04T13:13:44Z</time>
      </trkpt>
      <trkpt lat="44.26727" lon="4.42859">
        <ele>107</ele>
        <time>2021-07-04T13:13:53Z</time>
      </trkpt>
      <trkpt lat="44.26733" lon="4.42885">
        <ele>109</ele>
        <time>2021-07-04T13:13:58Z</time>
      </trkpt>
      <trkpt lat="44.26741" lon="4.4291">
        <ele>109</ele>
        <time>2021-07-04T13:14:02Z</time>
      </trkpt>
      <trkpt lat="44.26754" lon="4.42928">
        <ele>109</ele>
        <time>2021-07-04T13:14:06Z</time>
      </trkpt>
      <trkpt lat="44.26757" lon="4.42943">
        <ele>111</ele>
        <time>2021-07-04T13:14:09Z</time>
      </trkpt>
      <trkpt lat="44.26756" lon="4.42956">
        <ele>112</ele>
        <time>2021-07-04T13:14:11Z</time>
      </trkpt>
      <trkpt lat="44.26747" lon="4.42949">
        <ele>112</ele>
        <time>2021-07-04T13:14:14Z</time>
      </trkpt>
      <trkpt lat="44.26742" lon="4.42943">
        <ele>113</ele>
        <time>2021-07-04T13:14:15Z</time>
      </trkpt>
      <trkpt lat="44.26747" lon="4.42949">
        <ele>112</ele>
        <time>2021-07-04T13:14:17Z</time>
      </trkpt>
      <trkpt lat="44.26749" lon="4.42978">
        <ele>115</ele>
        <time>2021-07-04T13:14:22Z</time>
      </trkpt>
      <trkpt lat="44.26754" lon="4.42988">
        <ele>116</ele>
        <time>2021-07-04T13:14:24Z</time>
      </trkpt>
      <trkpt lat="44.2678" lon="4.43004">
        <ele>116</ele>
        <time>2021-07-04T13:14:30Z</time>
      </trkpt>
      <trkpt lat="44.26808" lon="4.43018">
        <ele>116</ele>
        <time>2021-07-04T13:14:37Z</time>
      </trkpt>
      <trkpt lat="44.26813" lon="4.43029">
        <ele>117</ele>
        <time>2021-07-04T13:14:39Z</time>
      </trkpt>
      <trkpt lat="44.26811" lon="4.43039">
        <ele>119</ele>
        <time>2021-07-04T13:14:41Z</time>
      </trkpt>
      <trkpt lat="44.26787" lon="4.43057">
        <ele>122</ele>
        <time>2021-07-04T13:14:48Z</time>
      </trkpt>
      <trkpt lat="44.26759" lon="4.4308">
        <ele>125</ele>
        <time>2021-07-04T13:14:55Z</time>
      </trkpt>
      <trkpt lat="44.26737" lon="4.43099">
        <ele>129</ele>
        <time>2021-07-04T13:15:01Z</time>
      </trkpt>
      <trkpt lat="44.26737" lon="4.43111">
        <ele>131</ele>
        <time>2021-07-04T13:15:03Z</time>
      </trkpt>
      <trkpt lat="44.26746" lon="4.43138">
        <ele>135</ele>
        <time>2021-07-04T13:15:08Z</time>
      </trkpt>
      <trkpt lat="44.26792" lon="4.43249">
        <ele>144</ele>
        <time>2021-07-04T13:15:30Z</time>
      </trkpt>
      <trkpt lat="44.26746" lon="4.4323">
        <ele>149</ele>
        <time>2021-07-04T13:15:41Z</time>
      </trkpt>
      <trkpt lat="44.26806" lon="4.43405">
        <ele>160</ele>
        <time>2021-07-04T13:16:13Z</time>
      </trkpt>
      <trkpt lat="44.26706" lon="4.43541">
        <ele>178</ele>
        <time>2021-07-04T13:16:46Z</time>
      </trkpt>
      <trkpt lat="44.26657" lon="4.43588">
        <ele>180</ele>
        <time>2021-07-04T13:17:00Z</time>
      </trkpt>
      <trkpt lat="44.26688" lon="4.43606">
        <ele>179</ele>
        <time>2021-07-04T13:17:08Z</time>
      </trkpt>
      <trkpt lat="44.26677" lon="4.43643">
        <ele>179</ele>
        <time>2021-07-04T13:17:14Z</time>
      </trkpt>
      <trkpt lat="44.26636" lon="4.43841">
        <ele>187</ele>
        <time>2021-07-04T13:17:49Z</time>
      </trkpt>
      <trkpt lat="44.26604" lon="4.43853">
        <ele>188</ele>
        <time>2021-07-04T13:17:56Z</time>
      </trkpt>
      <trkpt lat="44.26556" lon="4.43917">
        <ele>188</ele>
        <time>2021-07-04T13:18:12Z</time>
      </trkpt>
      <trkpt lat="44.26502" lon="4.43979">
        <ele>185</ele>
        <time>2021-07-04T13:18:28Z</time>
      </trkpt>
      <trkpt lat="44.26567" lon="4.44027">
        <ele>196</ele>
        <time>2021-07-04T13:18:45Z</time>
      </trkpt>
      <trkpt lat="44.26593" lon="4.43995">
        <ele>196</ele>
        <time>2021-07-04T13:18:54Z</time>
      </trkpt>
      <trkpt lat="44.26626" lon="4.4396">
        <ele>198</ele>
        <time>2021-07-04T13:19:03Z</time>
      </trkpt>
      <trkpt lat="44.26653" lon="4.43952">
        <ele>199</ele>
        <time>2021-07-04T13:19:10Z</time>
      </trkpt>
      <trkpt lat="44.26701" lon="4.43966">
        <ele>203</ele>
        <time>2021-07-04T13:19:21Z</time>
      </trkpt>
      <trkpt lat="44.26741" lon="4.44007">
        <ele>212</ele>
        <time>2021-07-04T13:19:33Z</time>
      </trkpt>
      <trkpt lat="44.2677" lon="4.44023">
        <ele>213</ele>
        <time>2021-07-04T13:19:40Z</time>
      </trkpt>
      <trkpt lat="44.26811" lon="4.44037">
        <ele>212</ele>
        <time>2021-07-04T13:19:50Z</time>
      </trkpt>
      <trkpt lat="44.26829" lon="4.44057">
        <ele>214</ele>
        <time>2021-07-04T13:19:55Z</time>
      </trkpt>
      <trkpt lat="44.26839" lon="4.44083">
        <ele>218</ele>
        <time>2021-07-04T13:20:00Z</time>
      </trkpt>
      <trkpt lat="44.26837" lon="4.44113">
        <ele>220</ele>
        <time>2021-07-04T13:20:05Z</time>
      </trkpt>
      <trkpt lat="44.26818" lon="4.4415">
        <ele>225</ele>
        <time>2021-07-04T13:20:13Z</time>
      </trkpt>
      <trkpt lat="44.26798" lon="4.44187">
        <ele>229</ele>
        <time>2021-07-04T13:20:21Z</time>
      </trkpt>
      <trkpt lat="44.26762" lon="4.44235">
        <ele>235</ele>
        <time>2021-07-04T13:20:32Z</time>
      </trkpt>
      <trkpt lat="44.26741" lon="4.44305">
        <ele>242</ele>
        <time>2021-07-04T13:20:45Z</time>
      </trkpt>
      <trkpt lat="44.26733" lon="4.44317">
        <ele>242</ele>
        <time>2021-07-04T13:20:48Z</time>
      </trkpt>
      <trkpt lat="44.26695" lon="4.4431">
        <ele>240</ele>
        <time>2021-07-04T13:20:57Z</time>
      </trkpt>
      <trkpt lat="44.26695" lon="4.44277">
        <ele>237</ele>
        <time>2021-07-04T13:21:02Z</time>
      </trkpt>
      <trkpt lat="44.26685" lon="4.44266">
        <ele>236</ele>
        <time>2021-07-04T13:21:05Z</time>
      </trkpt>
      <trkpt lat="44.2663" lon="4.44341">
        <ele>230</ele>
        <time>2021-07-04T13:21:23Z</time>
      </trkpt>
      <trkpt lat="44.26528" lon="4.44467">
        <ele>214</ele>
        <time>2021-07-04T13:21:55Z</time>
      </trkpt>
      <trkpt lat="44.26509" lon="4.44474">
        <ele>208</ele>
        <time>2021-07-04T13:21:59Z</time>
      </trkpt>
      <trkpt lat="44.26499" lon="4.44453">
        <ele>204</ele>
        <time>2021-07-04T13:22:04Z</time>
      </trkpt>
      <trkpt lat="44.26481" lon="4.44414">
        <ele>198</ele>
        <time>2021-07-04T13:22:11Z</time>
      </trkpt>
      <trkpt lat="44.26443" lon="4.44391">
        <ele>190</ele>
        <time>2021-07-04T13:22:21Z</time>
      </trkpt>
      <trkpt lat="44.26394" lon="4.44262">
        <ele>179</ele>
        <time>2021-07-04T13:22:45Z</time>
      </trkpt>
      <trkpt lat="44.26373" lon="4.44247">
        <ele>177</ele>
        <time>2021-07-04T13:22:51Z</time>
      </trkpt>
      <trkpt lat="44.26344" lon="4.44235">
        <ele>175</ele>
        <time>2021-07-04T13:22:58Z</time>
      </trkpt>
      <trkpt lat="44.26328" lon="4.44225">
        <ele>174</ele>
        <time>2021-07-04T13:23:02Z</time>
      </trkpt>
      <trkpt lat="44.26294" lon="4.44194">
        <ele>173</ele>
        <time>2021-07-04T13:23:12Z</time>
      </trkpt>
      <trkpt lat="44.26267" lon="4.44179">
        <ele>173</ele>
        <time>2021-07-04T13:23:18Z</time>
      </trkpt>
      <trkpt lat="44.26265" lon="4.44135">
        <ele>171</ele>
        <time>2021-07-04T13:23:26Z</time>
      </trkpt>
      <trkpt lat="44.26266" lon="4.44135">
        <ele>171</ele>
        <time>2021-07-04T13:23:26Z</time>
      </trkpt>
      <trkpt lat="44.26267" lon="4.44129">
        <ele>171</ele>
        <time>2021-07-04T13:23:27Z</time>
      </trkpt>
      <trkpt lat="44.26269" lon="4.44112">
        <ele>169</ele>
        <time>2021-07-04T13:23:30Z</time>
      </trkpt>
      <trkpt lat="44.26275" lon="4.44107">
        <ele>169</ele>
        <time>2021-07-04T13:23:32Z</time>
      </trkpt>
      <trkpt lat="44.26286" lon="4.44103">
        <ele>170</ele>
        <time>2021-07-04T13:23:34Z</time>
      </trkpt>
      <trkpt lat="44.26289" lon="4.44094">
        <ele>169</ele>
        <time>2021-07-04T13:23:36Z</time>
      </trkpt>
      <trkpt lat="44.26289" lon="4.44084">
        <ele>168</ele>
        <time>2021-07-04T13:23:38Z</time>
      </trkpt>
      <trkpt lat="44.26288" lon="4.44079">
        <ele>167</ele>
        <time>2021-07-04T13:23:38Z</time>
      </trkpt>
      <trkpt lat="44.26286" lon="4.44075">
        <ele>166</ele>
        <time>2021-07-04T13:23:39Z</time>
      </trkpt>
      <trkpt lat="44.26282" lon="4.44073">
        <ele>166</ele>
        <time>2021-07-04T13:23:40Z</time>
      </trkpt>
      <trkpt lat="44.26278" lon="4.44064">
        <ele>163</ele>
        <time>2021-07-04T13:23:42Z</time>
      </trkpt>
      <trkpt lat="44.26274" lon="4.44057">
        <ele>161</ele>
        <time>2021-07-04T13:23:44Z</time>
      </trkpt>
      <trkpt lat="44.26273" lon="4.44052">
        <ele>160</ele>
        <time>2021-07-04T13:23:44Z</time>
      </trkpt>
      <trkpt lat="44.26273" lon="4.44042">
        <ele>158</ele>
        <time>2021-07-04T13:23:46Z</time>
      </trkpt>
      <trkpt lat="44.26276" lon="4.44029">
        <ele>155</ele>
        <time>2021-07-04T13:23:48Z</time>
      </trkpt>
      <trkpt lat="44.26281" lon="4.44023">
        <ele>155</ele>
        <time>2021-07-04T13:23:50Z</time>
      </trkpt>
      <trkpt lat="44.2629" lon="4.44015">
        <ele>155</ele>
        <time>2021-07-04T13:23:52Z</time>
      </trkpt>
      <trkpt lat="44.2632" lon="4.43997">
        <ele>157</ele>
        <time>2021-07-04T13:24:00Z</time>
      </trkpt>
      <trkpt lat="44.26327" lon="4.43991">
        <ele>157</ele>
        <time>2021-07-04T13:24:02Z</time>
      </trkpt>
      <trkpt lat="44.26336" lon="4.43985">
        <ele>158</ele>
        <time>2021-07-04T13:24:04Z</time>
      </trkpt>
      <trkpt lat="44.26345" lon="4.43975">
        <ele>158</ele>
        <time>2021-07-04T13:24:07Z</time>
      </trkpt>
      <trkpt lat="44.26348" lon="4.43969">
        <ele>157</ele>
        <time>2021-07-04T13:24:08Z</time>
      </trkpt>
      <trkpt lat="44.26349" lon="4.43959">
        <ele>156</ele>
        <time>2021-07-04T13:24:10Z</time>
      </trkpt>
      <trkpt lat="44.26347" lon="4.43937">
        <ele>152</ele>
        <time>2021-07-04T13:24:14Z</time>
      </trkpt>
      <trkpt lat="44.26338" lon="4.43912">
        <ele>144</ele>
        <time>2021-07-04T13:24:18Z</time>
      </trkpt>
      <trkpt lat="44.26363" lon="4.4387">
        <ele>143</ele>
        <time>2021-07-04T13:24:27Z</time>
      </trkpt>
      <trkpt lat="44.26388" lon="4.43851">
        <ele>148</ele>
        <time>2021-07-04T13:24:34Z</time>
      </trkpt>
      <trkpt lat="44.26433" lon="4.43804">
        <ele>154</ele>
        <time>2021-07-04T13:24:47Z</time>
      </trkpt>
      <trkpt lat="44.26464" lon="4.43673">
        <ele>142</ele>
        <time>2021-07-04T13:25:10Z</time>
      </trkpt>
      <trkpt lat="44.26483" lon="4.43653">
        <ele>148</ele>
        <time>2021-07-04T13:25:16Z</time>
      </trkpt>
      <trkpt lat="44.26491" lon="4.436">
        <ele>147</ele>
        <time>2021-07-04T13:25:25Z</time>
      </trkpt>
      <trkpt lat="44.2648" lon="4.43569">
        <ele>139</ele>
        <time>2021-07-04T13:25:31Z</time>
      </trkpt>
      <trkpt lat="44.26481" lon="4.43522">
        <ele>138</ele>
        <time>2021-07-04T13:25:38Z</time>
      </trkpt>
      <trkpt lat="44.26491" lon="4.43433">
        <ele>135</ele>
        <time>2021-07-04T13:25:54Z</time>
      </trkpt>
      <trkpt lat="44.26488" lon="4.43389">
        <ele>130</ele>
        <time>2021-07-04T13:26:01Z</time>
      </trkpt>
      <trkpt lat="44.26489" lon="4.43329">
        <ele>125</ele>
        <time>2021-07-04T13:26:11Z</time>
      </trkpt>
      <trkpt lat="44.26516" lon="4.43259">
        <ele>127</ele>
        <time>2021-07-04T13:26:24Z</time>
      </trkpt>
      <trkpt lat="44.26538" lon="4.43185">
        <ele>125</ele>
        <time>2021-07-04T13:26:38Z</time>
      </trkpt>
      <trkpt lat="44.26541" lon="4.43118">
        <ele>120</ele>
        <time>2021-07-04T13:26:49Z</time>
      </trkpt>
      <trkpt lat="44.26544" lon="4.43065">
        <ele>118</ele>
        <time>2021-07-04T13:26:58Z</time>
      </trkpt>
      <trkpt lat="44.26518" lon="4.43035">
        <ele>114</ele>
        <time>2021-07-04T13:27:06Z</time>
      </trkpt>
      <trkpt lat="44.26518" lon="4.43034">
        <ele>114</ele>
        <time>2021-07-04T13:27:06Z</time>
      </trkpt>
      <trkpt lat="44.2651" lon="4.43024">
        <ele>113</ele>
        <time>2021-07-04T13:27:08Z</time>
      </trkpt>
      <trkpt lat="44.26507" lon="4.43015">
        <ele>113</ele>
        <time>2021-07-04T13:27:10Z</time>
      </trkpt>
      <trkpt lat="44.26507" lon="4.43013">
        <ele>113</ele>
        <time>2021-07-04T13:27:10Z</time>
      </trkpt>
      <trkpt lat="44.26506" lon="4.43002">
        <ele>113</ele>
        <time>2021-07-04T13:27:12Z</time>
      </trkpt>
      <trkpt lat="44.26507" lon="4.42968">
        <ele>114</ele>
        <time>2021-07-04T13:27:18Z</time>
      </trkpt>
      <trkpt lat="44.2651" lon="4.4293">
        <ele>115</ele>
        <time>2021-07-04T13:27:24Z</time>
      </trkpt>
      <trkpt lat="44.26499" lon="4.42877">
        <ele>115</ele>
        <time>2021-07-04T13:27:33Z</time>
      </trkpt>
      <trkpt lat="44.26496" lon="4.42869">
        <ele>116</ele>
        <time>2021-07-04T13:27:35Z</time>
      </trkpt>
      <trkpt lat="44.26494" lon="4.42872">
        <ele>115</ele>
        <time>2021-07-04T13:27:36Z</time>
      </trkpt>
      <trkpt lat="44.26492" lon="4.42876">
        <ele>115</ele>
        <time>2021-07-04T13:27:36Z</time>
      </trkpt>
      <trkpt lat="44.26486" lon="4.42884">
        <ele>114</ele>
        <time>2021-07-04T13:27:38Z</time>
      </trkpt>
      <trkpt lat="44.2647" lon="4.42895">
        <ele>112</ele>
        <time>2021-07-04T13:27:43Z</time>
      </trkpt>
      <trkpt lat="44.26458" lon="4.42899">
        <ele>111</ele>
        <time>2021-07-04T13:27:45Z</time>
      </trkpt>
      <trkpt lat="44.26446" lon="4.429">
        <ele>110</ele>
        <time>2021-07-04T13:27:48Z</time>
      </trkpt>
      <trkpt lat="44.26431" lon="4.42895">
        <ele>109</ele>
        <time>2021-07-04T13:27:52Z</time>
      </trkpt>
      <trkpt lat="44.26419" lon="4.42892">
        <ele>109</ele>
        <time>2021-07-04T13:27:55Z</time>
      </trkpt>
      <trkpt lat="44.26413" lon="4.42893">
        <ele>109</ele>
        <time>2021-07-04T13:27:56Z</time>
      </trkpt>
      <trkpt lat="44.26407" lon="4.42896">
        <ele>109</ele>
        <time>2021-07-04T13:27:58Z</time>
      </trkpt>
      <trkpt lat="44.26406" lon="4.42898">
        <ele>108</ele>
        <time>2021-07-04T13:27:58Z</time>
      </trkpt>
      <trkpt lat="44.26405" lon="4.42902">
        <ele>108</ele>
        <time>2021-07-04T13:27:59Z</time>
      </trkpt>
      <trkpt lat="44.26405" lon="4.42904">
        <ele>107</ele>
        <time>2021-07-04T13:27:59Z</time>
      </trkpt>
      <trkpt lat="44.26406" lon="4.42906">
        <ele>107</ele>
        <time>2021-07-04T13:27:59Z</time>
      </trkpt>
      <trkpt lat="44.26413" lon="4.42911">
        <ele>106</ele>
        <time>2021-07-04T13:28:01Z</time>
      </trkpt>
      <trkpt lat="44.26424" lon="4.42922">
        <ele>105</ele>
        <time>2021-07-04T13:28:04Z</time>
      </trkpt>
      <trkpt lat="44.2644" lon="4.42945">
        <ele>105</ele>
        <time>2021-07-04T13:28:10Z</time>
      </trkpt>
      <trkpt lat="44.26455" lon="4.4297">
        <ele>105</ele>
        <time>2021-07-04T13:28:15Z</time>
      </trkpt>
      <trkpt lat="44.26458" lon="4.42981">
        <ele>104</ele>
        <time>2021-07-04T13:28:17Z</time>
      </trkpt>
      <trkpt lat="44.26457" lon="4.4299">
        <ele>104</ele>
        <time>2021-07-04T13:28:19Z</time>
      </trkpt>
      <trkpt lat="44.26456" lon="4.42995">
        <ele>103</ele>
        <time>2021-07-04T13:28:20Z</time>
      </trkpt>
      <trkpt lat="44.26453" lon="4.42997">
        <ele>102</ele>
        <time>2021-07-04T13:28:20Z</time>
      </trkpt>
      <trkpt lat="44.26448" lon="4.42997">
        <ele>101</ele>
        <time>2021-07-04T13:28:22Z</time>
      </trkpt>
      <trkpt lat="44.26426" lon="4.42964">
        <ele>100</ele>
        <time>2021-07-04T13:28:29Z</time>
      </trkpt>
      <trkpt lat="44.26408" lon="4.42949">
        <ele>101</ele>
        <time>2021-07-04T13:28:34Z</time>
      </trkpt>
      <trkpt lat="44.26387" lon="4.42938">
        <ele>102</ele>
        <time>2021-07-04T13:28:39Z</time>
      </trkpt>
      <trkpt lat="44.2637" lon="4.4293">
        <ele>103</ele>
        <time>2021-07-04T13:28:43Z</time>
      </trkpt>
      <trkpt lat="44.26355" lon="4.42929">
        <ele>103</ele>
        <time>2021-07-04T13:28:47Z</time>
      </trkpt>
      <trkpt lat="44.26355" lon="4.42919">
        <ele>105</ele>
        <time>2021-07-04T13:28:49Z</time>
      </trkpt>
      <trkpt lat="44.26355" lon="4.42929">
        <ele>103</ele>
        <time>2021-07-04T13:28:50Z</time>
      </trkpt>
      <trkpt lat="44.26287" lon="4.42925">
        <ele>103</ele>
        <time>2021-07-04T13:29:06Z</time>
      </trkpt>
      <trkpt lat="44.26267" lon="4.42925">
        <ele>102</ele>
        <time>2021-07-04T13:29:11Z</time>
      </trkpt>
      <trkpt lat="44.26221" lon="4.4293">
        <ele>99</ele>
        <time>2021-07-04T13:29:22Z</time>
      </trkpt>
      <trkpt lat="44.26177" lon="4.42927">
        <ele>97</ele>
        <time>2021-07-04T13:29:32Z</time>
      </trkpt>
      <trkpt lat="44.26148" lon="4.42914">
        <ele>98</ele>
        <time>2021-07-04T13:29:39Z</time>
      </trkpt>
      <trkpt lat="44.26119" lon="4.42896">
        <ele>101</ele>
        <time>2021-07-04T13:29:46Z</time>
      </trkpt>
      <trkpt lat="44.26091" lon="4.42876">
        <ele>102</ele>
        <time>2021-07-04T13:29:54Z</time>
      </trkpt>
      <trkpt lat="44.26053" lon="4.42858">
        <ele>101</ele>
        <time>2021-07-04T13:30:03Z</time>
      </trkpt>
      <trkpt lat="44.2603" lon="4.42844">
        <ele>101</ele>
        <time>2021-07-04T13:30:09Z</time>
      </trkpt>
      <trkpt lat="44.26023" lon="4.4284">
        <ele>100</ele>
        <time>2021-07-04T13:30:11Z</time>
      </trkpt>
      <trkpt lat="44.26014" lon="4.42831">
        <ele>100</ele>
        <time>2021-07-04T13:30:13Z</time>
      </trkpt>
      <trkpt lat="44.2601" lon="4.42819">
        <ele>101</ele>
        <time>2021-07-04T13:30:16Z</time>
      </trkpt>
      <trkpt lat="44.26009" lon="4.42808">
        <ele>101</ele>
        <time>2021-07-04T13:30:17Z</time>
      </trkpt>
      <trkpt lat="44.26012" lon="4.428">
        <ele>102</ele>
        <time>2021-07-04T13:30:19Z</time>
      </trkpt>
      <trkpt lat="44.26003" lon="4.42803">
        <ele>101</ele>
        <time>2021-07-04T13:30:21Z</time>
      </trkpt>
      <trkpt lat="44.25997" lon="4.42804">
        <ele>101</ele>
        <time>2021-07-04T13:30:23Z</time>
      </trkpt>
      <trkpt lat="44.25962" lon="4.42822">
        <ele>97</ele>
        <time>2021-07-04T13:30:31Z</time>
      </trkpt>
      <trkpt lat="44.25927" lon="4.42838">
        <ele>94</ele>
        <time>2021-07-04T13:30:40Z</time>
      </trkpt>
      <trkpt lat="44.25878" lon="4.4282">
        <ele>93</ele>
        <time>2021-07-04T13:30:52Z</time>
      </trkpt>
      <trkpt lat="44.25858" lon="4.42808">
        <ele>93</ele>
        <time>2021-07-04T13:30:57Z</time>
      </trkpt>
      <trkpt lat="44.2585" lon="4.42794">
        <ele>94</ele>
        <time>2021-07-04T13:31:00Z</time>
      </trkpt>
      <trkpt lat="44.25839" lon="4.4276">
        <ele>96</ele>
        <time>2021-07-04T13:31:06Z</time>
      </trkpt>
      <trkpt lat="44.25833" lon="4.4275">
        <ele>96</ele>
        <time>2021-07-04T13:31:08Z</time>
      </trkpt>
      <trkpt lat="44.2583" lon="4.42742">
        <ele>96</ele>
        <time>2021-07-04T13:31:10Z</time>
      </trkpt>
      <trkpt lat="44.25826" lon="4.42728">
        <ele>97</ele>
        <time>2021-07-04T13:31:12Z</time>
      </trkpt>
      <trkpt lat="44.25823" lon="4.42727">
        <ele>97</ele>
        <time>2021-07-04T13:31:13Z</time>
      </trkpt>
      <trkpt lat="44.258" lon="4.42719">
        <ele>95</ele>
        <time>2021-07-04T13:31:18Z</time>
      </trkpt>
      <trkpt lat="44.2578" lon="4.42669">
        <ele>96</ele>
        <time>2021-07-04T13:31:28Z</time>
      </trkpt>
      <trkpt lat="44.2576" lon="4.4262">
        <ele>94</ele>
        <time>2021-07-04T13:31:37Z</time>
      </trkpt>
      <trkpt lat="44.25762" lon="4.42574">
        <ele>96</ele>
        <time>2021-07-04T13:31:45Z</time>
      </trkpt>
      <trkpt lat="44.25764" lon="4.4255">
        <ele>96</ele>
        <time>2021-07-04T13:31:49Z</time>
      </trkpt>
      <trkpt lat="44.25768" lon="4.42525">
        <ele>96</ele>
        <time>2021-07-04T13:31:54Z</time>
      </trkpt>
      <trkpt lat="44.25777" lon="4.42494">
        <ele>99</ele>
        <time>2021-07-04T13:31:59Z</time>
      </trkpt>
      <trkpt lat="44.25792" lon="4.4246">
        <ele>101</ele>
        <time>2021-07-04T13:32:06Z</time>
      </trkpt>
      <trkpt lat="44.25807" lon="4.42426">
        <ele>102</ele>
        <time>2021-07-04T13:32:12Z</time>
      </trkpt>
      <trkpt lat="44.25826" lon="4.42398">
        <ele>103</ele>
        <time>2021-07-04T13:32:19Z</time>
      </trkpt>
      <trkpt lat="44.25851" lon="4.4236">
        <ele>104</ele>
        <time>2021-07-04T13:32:28Z</time>
      </trkpt>
      <trkpt lat="44.25907" lon="4.42269">
        <ele>105</ele>
        <time>2021-07-04T13:32:48Z</time>
      </trkpt>
      <trkpt lat="44.2591" lon="4.42259">
        <ele>104</ele>
        <time>2021-07-04T13:32:49Z</time>
      </trkpt>
      <trkpt lat="44.25906" lon="4.4225">
        <ele>102</ele>
        <time>2021-07-04T13:32:51Z</time>
      </trkpt>
      <trkpt lat="44.25843" lon="4.42194">
        <ele>90</ele>
        <time>2021-07-04T13:33:09Z</time>
      </trkpt>
      <trkpt lat="44.2584" lon="4.42186">
        <ele>89</ele>
        <time>2021-07-04T13:33:10Z</time>
      </trkpt>
      <trkpt lat="44.25843" lon="4.42178">
        <ele>89</ele>
        <time>2021-07-04T13:33:12Z</time>
      </trkpt>
      <trkpt lat="44.25862" lon="4.42142">
        <ele>90</ele>
        <time>2021-07-04T13:33:19Z</time>
      </trkpt>
      <trkpt lat="44.25881" lon="4.42107">
        <ele>90</ele>
        <time>2021-07-04T13:33:26Z</time>
      </trkpt>
      <trkpt lat="44.259" lon="4.42071">
        <ele>90</ele>
        <time>2021-07-04T13:33:34Z</time>
      </trkpt>
      <trkpt lat="44.25955" lon="4.41986">
        <ele>92</ele>
        <time>2021-07-04T13:33:53Z</time>
      </trkpt>
      <trkpt lat="44.25958" lon="4.41981">
        <ele>93</ele>
        <time>2021-07-04T13:33:54Z</time>
      </trkpt>
      <trkpt lat="44.25958" lon="4.41982">
        <ele>93</ele>
        <time>2021-07-04T13:33:54Z</time>
      </trkpt>
      <trkpt lat="44.25966" lon="4.41986">
        <ele>93</ele>
        <time>2021-07-04T13:33:56Z</time>
      </trkpt>
      <trkpt lat="44.25998" lon="4.4202">
        <ele>97</ele>
        <time>2021-07-04T13:34:06Z</time>
      </trkpt>
      <trkpt lat="44.26003" lon="4.42026">
        <ele>97</ele>
        <time>2021-07-04T13:34:07Z</time>
      </trkpt>
      <trkpt lat="44.26024" lon="4.42052">
        <ele>101</ele>
        <time>2021-07-04T13:34:14Z</time>
      </trkpt>
      <trkpt lat="44.26047" lon="4.42071">
        <ele>105</ele>
        <time>2021-07-04T13:34:20Z</time>
      </trkpt>
      <trkpt lat="44.26052" lon="4.42076">
        <ele>105</ele>
        <time>2021-07-04T13:34:22Z</time>
      </trkpt>
      <trkpt lat="44.26063" lon="4.42078">
        <ele>107</ele>
        <time>2021-07-04T13:34:24Z</time>
      </trkpt>
      <trkpt lat="44.26068" lon="4.42077">
        <ele>108</ele>
        <time>2021-07-04T13:34:25Z</time>
      </trkpt>
      <trkpt lat="44.26078" lon="4.42074">
        <ele>109</ele>
        <time>2021-07-04T13:34:28Z</time>
      </trkpt>
      <trkpt lat="44.26085" lon="4.42068">
        <ele>109</ele>
        <time>2021-07-04T13:34:30Z</time>
      </trkpt>
      <trkpt lat="44.26094" lon="4.42057">
        <ele>107</ele>
        <time>2021-07-04T13:34:32Z</time>
      </trkpt>
      <trkpt lat="44.26099" lon="4.4205">
        <ele>106</ele>
        <time>2021-07-04T13:34:34Z</time>
      </trkpt>
      <trkpt lat="44.26092" lon="4.42041">
        <ele>106</ele>
        <time>2021-07-04T13:34:36Z</time>
      </trkpt>
      <trkpt lat="44.26089" lon="4.42034">
        <ele>106</ele>
        <time>2021-07-04T13:34:38Z</time>
      </trkpt>
      <trkpt lat="44.26087" lon="4.42022">
        <ele>105</ele>
        <time>2021-07-04T13:34:40Z</time>
      </trkpt>
      <trkpt lat="44.26088" lon="4.42011">
        <ele>104</ele>
        <time>2021-07-04T13:34:42Z</time>
      </trkpt>
      <trkpt lat="44.26089" lon="4.41993">
        <ele>103</ele>
        <time>2021-07-04T13:34:45Z</time>
      </trkpt>
      <trkpt lat="44.26092" lon="4.4198">
        <ele>101</ele>
        <time>2021-07-04T13:34:47Z</time>
      </trkpt>
      <trkpt lat="44.26096" lon="4.41965">
        <ele>98</ele>
        <time>2021-07-04T13:34:50Z</time>
      </trkpt>
      <trkpt lat="44.26106" lon="4.41971">
        <ele>99</ele>
        <time>2021-07-04T13:34:52Z</time>
      </trkpt>
      <trkpt lat="44.26124" lon="4.4197">
        <ele>97</ele>
        <time>2021-07-04T13:34:56Z</time>
      </trkpt>
      <trkpt lat="44.26127" lon="4.41969">
        <ele>97</ele>
        <time>2021-07-04T13:34:57Z</time>
      </trkpt>
      <trkpt lat="44.26128" lon="4.41965">
        <ele>97</ele>
        <time>2021-07-04T13:34:58Z</time>
      </trkpt>
      <trkpt lat="44.26131" lon="4.41966">
        <ele>97</ele>
        <time>2021-07-04T13:34:58Z</time>
      </trkpt>
      <trkpt lat="44.2614" lon="4.41967">
        <ele>96</ele>
        <time>2021-07-04T13:35:01Z</time>
      </trkpt>
      <trkpt lat="44.26148" lon="4.41971">
        <ele>96</ele>
        <time>2021-07-04T13:35:03Z</time>
      </trkpt>
      <trkpt lat="44.26161" lon="4.41974">
        <ele>96</ele>
        <time>2021-07-04T13:35:06Z</time>
      </trkpt>
      <trkpt lat="44.26163" lon="4.41976">
        <ele>96</ele>
        <time>2021-07-04T13:35:06Z</time>
      </trkpt>
      <trkpt lat="44.26177" lon="4.41994">
        <ele>96</ele>
        <time>2021-07-04T13:35:11Z</time>
      </trkpt>
    </trkseg>
  </trk>
</gpx>